Für Piloten

Informationen für Piloten zum Flugplatz Borken-Hoxfeld
Hier findest Du alle relevanten Informationen, die Du als Pilot benötigst, um Borken-Hoxfeld anzufliegen.

Flugplatz: Borken-Hoxfeld ICAO-Code: EDLY
Borken-Hoxfeld Info: 122,930 Mhz
GAFOR Gebiet: 32
Platzrunde: Motorflug; -> Südplatzrunde; Segelflug; -> Nordplatzrunde;
Landegebühr: z.Zt. 5,00 Euro
Platzhöhe: 48m üMSL
Pisten: 12/30 – 740 m x 30 m, GRAS
Betriebszeiten: PPR (in den Sommermonaten Mittagspause beachten)

 

Wetterforecast:

Available data for EDDL from the past 2 hours
DUESSELDORF
Metar
EDDL 200920Z 14006KT 080V160 6000 FEW006 03/02 Q1018 NOSIG

09:20 UTC

Wind: 140° 6kt

Visibility: 6000 m

Sky: FEW 600 ft

Temp: 3 deg C / 37.4 deg F

Dewpoint: 2 deg C / 35.6 deg F

Pressure: 1018 hPa

TAF
TAF AMD EDDL 200620Z 2006/2112 15004KT 3000 BR FEW002 PROB30 TEMPO 2006/2009 0800 FZFG BKN001 BECMG 2009/2012 9999 BECMG 2011/2014 08005KT BECMG 2108/2111 14007KT

Alle obigen Informationen ersetzen nicht die vorgeschriebene, persönliche Flugvorbereitung.